地図

経路データ

SID SEASON NUMBER BASIN SUBBASIN NAME ISO_TIME NATURE LAT LON WMO_WIND WMO_PRES WMO_AGENCY TRACK_TYPE DIST2LAND LANDFALL IFLAG USA_AGENCY USA_ATCF_ID USA_LAT USA_LON USA_RECORD USA_STATUS USA_WIND USA_PRES USA_SSHS USA_R34_NE USA_R34_SE USA_R34_SW USA_R34_NW USA_R50_NE USA_R50_SE USA_R50_SW USA_R50_NW USA_R64_NE USA_R64_SE USA_R64_SW USA_R64_NW USA_POCI USA_ROCI USA_RMW USA_EYE TOKYO_LAT TOKYO_LON TOKYO_GRADE TOKYO_WIND TOKYO_PRES TOKYO_R50_DIR TOKYO_R50_LONG TOKYO_R50_SHORT TOKYO_R30_DIR TOKYO_R30_LONG TOKYO_R30_SHORT TOKYO_LAND CMA_LAT CMA_LON CMA_CAT CMA_WIND CMA_PRES HKO_LAT HKO_LON HKO_CAT HKO_WIND HKO_PRES NEWDELHI_LAT NEWDELHI_LON NEWDELHI_GRADE NEWDELHI_WIND NEWDELHI_PRES NEWDELHI_CI NEWDELHI_DP NEWDELHI_POCI REUNION_LAT REUNION_LON REUNION_TYPE REUNION_WIND REUNION_PRES REUNION_TNUM REUNION_CI REUNION_RMW REUNION_R34_NE REUNION_R34_SE REUNION_R34_SW REUNION_R34_NW REUNION_R50_NE REUNION_R50_SE REUNION_R50_SW REUNION_R50_NW REUNION_R64_NE REUNION_R64_SE REUNION_R64_SW REUNION_R64_NW BOM_LAT BOM_LON BOM_TYPE BOM_WIND BOM_PRES BOM_TNUM BOM_CI BOM_RMW BOM_R34_NE BOM_R34_SE BOM_R34_SW BOM_R34_NW BOM_R50_NE BOM_R50_SE BOM_R50_SW BOM_R50_NW BOM_R64_NE BOM_R64_SE BOM_R64_SW BOM_R64_NW BOM_ROCI BOM_POCI BOM_EYE BOM_POS_METHOD BOM_PRES_METHOD NADI_LAT NADI_LON NADI_CAT NADI_WIND NADI_PRES WELLINGTON_LAT WELLINGTON_LON WELLINGTON_WIND WELLINGTON_PRES DS824_LAT DS824_LON DS824_STAGE DS824_WIND DS824_PRES TD9636_LAT TD9636_LON TD9636_STAGE TD9636_WIND TD9636_PRES TD9635_LAT TD9635_LON TD9635_WIND TD9635_PRES TD9635_ROCI NEUMANN_LAT NEUMANN_LON NEUMANN_CLASS NEUMANN_WIND NEUMANN_PRES MLC_LAT MLC_LON MLC_CLASS MLC_WIND MLC_PRES USA_GUST BOM_GUST BOM_GUST_PER REUNION_GUST REUNION_GUST_PER USA_SEAHGT USA_SEARAD_NE USA_SEARAD_SE USA_SEARAD_SW USA_SEARAD_NW STORM_SPEED STORM_DIR
1958200N18232 1958 55 EP MM NOT_NAMED 1958-07-19 00:00:00 TS 17.6000 -127.600 75 hurdat_epa main 1713 1713 O________OO___ hurdat_epa EP031958 17.6000 -127.600 HU 75 1 17.6000 -127.600 TC 75 17.6000 -127.600 4 12 270
1958200N18232 1958 55 EP MM NOT_NAMED 1958-07-19 03:00:00 TS 17.5950 -128.206 main 1760 1760 P________PP___ EP031958 17.5929 -128.210 HU 75 1 17.5929 -128.210 TC 75 17.6032 -128.189 4 11 270
1958200N18232 1958 55 EP MM NOT_NAMED 1958-07-19 06:00:00 TS 17.6029 -128.795 75 hurdat_epa main 1808 1808 O________OP___ hurdat_epa EP031958 17.6000 -128.800 HU 75 1 17.6000 -128.800 TC 75 17.6143 -128.773 4 11 272
1958200N18232 1958 55 EP MM NOT_NAMED 1958-07-19 09:00:00 TS 17.6365 -129.355 main 1856 1856 P________PP___ EP031958 17.6348 -129.358 HU 75 1 17.6348 -129.358 TC 75 17.6433 -129.345 4 11 275
1958200N18232 1958 55 EP MM NOT_NAMED 1958-07-19 12:00:00 TS 17.7000 -129.900 75 hurdat_epa main 1890 1890 O________OO___ hurdat_epa EP031958 17.7000 -129.900 HU 75 1 17.7000 -129.900 TC 75 17.7000 -129.900 4 11 278
1958200N18232 1958 55 EP MM NOT_NAMED 1958-07-19 15:00:00 TS 17.7918 -130.447 main 1924 1924 P________PP___ EP031958 17.7923 -130.450 HU 75 1 17.7923 -130.450 TC 75 17.7896 -130.437 4 11 281
1958200N18232 1958 55 EP MM NOT_NAMED 1958-07-19 18:00:00 TS 17.8997 -130.994 75 hurdat_epa main 1968 1968 O________OP___ hurdat_epa EP031958 17.9000 -131.000 HU 75 1 17.9000 -131.000 TC 75 17.8986 -130.970 4 11 282
1958200N18232 1958 55 EP MM NOT_NAMED 1958-07-19 21:00:00 TS 18.0074 -131.532 main 2004 2004 P________PP___ EP031958 18.0072 -131.535 HU 75 1 18.0072 -131.535 TC 75 18.0083 -131.518 4 11 281
1958200N18232 1958 55 EP MM NOT_NAMED 1958-07-20 00:00:00 TS 18.1000 -132.100 75 hurdat_epa main 2049 2049 O________OO___ hurdat_epa EP031958 18.1000 -132.100 HU 75 1 18.1000 -132.100 TC 75 18.1000 -132.100 4 12 278
1958200N18232 1958 55 EP MM NOT_NAMED 1958-07-20 03:00:00 TS 18.1605 -132.736 main 2096 2096 P________PP___ EP031958 18.1648 -132.728 HU 75 1 18.1648 -132.728 TC 75 18.1430 -132.768 4 13 274
1958200N18232 1958 55 EP MM NOT_NAMED 1958-07-20 06:00:00 TS 18.1932 -133.413 75 hurdat_epa main 2157 2157 O________OP___ hurdat_epa EP031958 18.2000 -133.400 HU 75 1 18.2000 -133.400 TC 75 18.1658 -133.466 4 13 272
1958200N18232 1958 55 EP MM NOT_NAMED 1958-07-20 09:00:00 TS 18.1962 -134.129 main 2181 2108 P________PP___ EP031958 18.2001 -134.123 HU 75 1 18.2001 -134.123 TC 75 18.1805 -134.155 4 13 270
1958200N18232 1958 55 EP MM NOT_NAMED 1958-07-20 12:00:00 TS 18.2000 -134.800 75 hurdat_epa main 2108 2056 O________OO___ hurdat_epa EP031958 18.2000 -134.800 HU 75 1 18.2000 -134.800 TC 75 18.2000 -134.800 4 12 272
1958200N18232 1958 55 EP MM NOT_NAMED 1958-07-20 15:00:00 TS 18.2445 -135.338 main 2056 2002 P________PP___ EP031958 18.2421 -135.330 HU 75 1 18.2421 -135.330 TC 75 18.2542 -135.370 4 10 276
1958200N18232 1958 55 EP MM NOT_NAMED 1958-07-20 18:00:00 TS 18.3028 -135.818 75 hurdat_epa main 2002 1948 O________OP___ hurdat_epa EP031958 18.3000 -135.800 HU 75 1 18.3000 -135.800 TC 75 18.3141 -135.890 4 9 277
1958200N18232 1958 55 EP MM NOT_NAMED 1958-07-20 21:00:00 TS 18.3594 -136.325 main 1948 1896 P________PP___ EP031958 18.3575 -136.315 HU 75 1 18.3575 -136.315 TC 75 18.3669 -136.364 4 9 276
1958200N18232 1958 55 EP MM NOT_NAMED 1958-07-21 00:00:00 TS 18.4000 -136.800 75 hurdat_epa main 1896 1854 O________OO___ hurdat_epa EP031958 18.4000 -136.800 HU 75 1 18.4000 -136.800 TC 75 18.4000 -136.800 4 9 274
1958200N18232 1958 55 EP MM NOT_NAMED 1958-07-21 03:00:00 TS 18.4127 -137.219 main 1854 1812 P________PP___ EP031958 18.4149 -137.223 HU 75 1 18.4149 -137.223 TC 75 18.4039 -137.204 4 8 270
1958200N18232 1958 55 EP MM NOT_NAMED 1958-07-21 06:00:00 TS 18.3966 -137.597 75 hurdat_epa main 1812 1780 O________OP___ hurdat_epa EP031958 18.4000 -137.600 HU 75 1 18.4000 -137.600 TC 75 18.3831 -137.583 4 7 265
1958200N18232 1958 55 EP MM NOT_NAMED 1958-07-21 09:00:00 TS 18.3553 -137.953 main 1770 1740 P________PP___ EP031958 18.3576 -137.955 HU 75 1 18.3576 -137.955 TC 75 18.3458 -137.946 4 7 262
1958200N18232 1958 55 EP MM NOT_NAMED 1958-07-21 12:00:00 TS 18.3000 -138.300 75 hurdat_epa main 1740 O________OO___ hurdat_epa EP031958 18.3000 -138.300 HU 75 1 18.3000 -138.300 TC 75 18.3000 -138.300 4 7 260

IBTrACS Databaseについて

本データベースは、米国NOAAが公開する1842年以降の世界の熱帯低気圧のベストトラックデータアーカイブInternational Best Track Archive for Climate Stewardship (IBTrACS)を、ウェブで閲覧しやすい形式に変換したものです。

最終更新日:2021-12-03